Time;durP1;ratioP1;P1;durP2;ratioP2;P2;SDS_P1;SDS_P2;PMS_P1;PMS_P2;Temp;Humidity;BMP_temperature;BMP_pressure;BME280_temperature;BME280_humidity;BME280_pressure;Samples;Min_cycle;Max_cycle;Signal;HPM_P1;HPM_P2
2023/04/24 08:05:15;;;;;;;0.87;0.83;;;;;;;;;;6008564;23;21040;31
2023/04/24 08:07:42;;;;;;;1.35;1.25;;;;;;;;;;4880399;29;20257;-76
2023/04/24 08:10:10;;;;;;;1.40;1.10;;;;;;;;;;4882331;29;20112;-75
2023/04/24 08:12:35;;;;;;;1.00;1.00;;;;;;;;;;4882339;29;20072;-75
2023/04/24 08:15:01;;;;;;;1.00;0.90;;;;;;;;;;4882319;29;20029;-75
2023/04/24 08:17:26;;;;;;;1.00;1.00;;;;;;;;;;4882077;29;20417;-76
2023/04/24 08:19:58;;;;;;;1.10;0.85;;;;;;;;;;4881850;29;20496;-75
2023/04/24 08:22:24;;;;;;;1.67;1.00;;;;;;;;;;4881884;29;20025;-76
2023/04/24 08:24:49;;;;;;;1.65;1.02;;;;;;;;;;4881849;29;20395;-75
2023/04/24 08:27:15;;;;;;;0.90;0.90;;;;;;;;;;4881617;29;20028;-75
2023/04/24 08:29:40;;;;;;;0.85;0.82;;;;;;;;;;4881662;29;20134;-75
2023/04/24 08:32:06;;;;;;;1.38;0.95;;;;;;;;;;4881729;29;20045;-76
2023/04/24 08:34:31;;;;;;;1.20;1.10;;;;;;;;;;4881742;29;20381;-77
2023/04/24 08:36:57;;;;;;;1.75;1.05;;;;;;;;;;4881163;29;20081;-78
2023/04/24 08:39:22;;;;;;;1.38;0.93;;;;;;;;;;4882134;29;20032;-78
2023/04/24 08:41:48;;;;;;;1.40;1.30;;;;;;;;;;4881520;29;20380;-76
2023/04/24 08:44:15;;;;;;;1.25;1.15;;;;;;;;;;4881592;29;20544;-78
2023/04/24 08:46:42;;;;;;;0.90;0.90;;;;;;;;;;4881475;29;20361;-76
2023/04/24 08:49:08;;;;;;;1.33;1.23;;;;;;;;;;4881205;29;20048;-76
2023/04/24 08:51:34;;;;;;;1.45;1.35;;;;;;;;;;4881245;29;20473;-79
2023/04/24 08:53:59;;;;;;;3.20;1.70;;;;;;;;;;4881427;29;20504;-77
2023/04/24 08:56:26;;;;;;;1.50;1.40;;;;;;;;;;4881340;29;20440;-76
2023/04/24 08:58:53;;;;;;;2.17;1.50;;;;;;;;;;4881189;29;20032;-77
2023/04/24 09:01:20;;;;;;;1.88;1.08;;;;;;;;;;4880987;29;20040;-76
2023/04/24 09:03:48;;;;;;;1.40;1.30;;;;;;;;;;4880167;29;20029;-77
2023/04/24 09:06:15;;;;;;;1.02;1.02;;;;;;;;;;4880816;29;20049;-77
2023/04/24 09:08:43;;;;;;;1.20;0.88;;;;;;;;;;4881045;29;20077;-77
2023/04/24 09:11:09;;;;;;;0.95;0.95;;;;;;;;;;4881132;29;20033;-76
2023/04/24 09:13:35;;;;;;;11.13;4.05;;;;;;;;;;4881074;29;20032;-80
2023/04/24 09:16:00;;;;;;;13.27;3.95;;;;;;;;;;4881178;29;20441;-76
2023/04/24 09:18:27;;;;;;;7.93;2.80;;;;;;;;;;4880606;29;20047;-76
2023/04/24 09:21:06;;;;;;;1.55;1.40;;;;;;;;;;4879619;29;20036;-75
2023/04/24 09:23:32;;;;;;;1.70;1.55;;;;;;;;;;4880646;29;20032;-77
2023/04/24 09:26:00;;;;;;;4.40;2.05;;;;;;;;;;4880761;29;20037;-77
2023/04/24 09:28:46;;;;;;;2.30;1.60;;;;;;;;;;4880730;29;20037;-76
2023/04/24 09:31:18;;;;;;;2.75;1.52;;;;;;;;;;4880532;29;20445;-77
2023/04/24 09:33:57;;;;;;;5.38;2.38;;;;;;;;;;4880502;29;20376;-76
2023/04/24 09:36:38;;;;;;;5.95;2.10;;;;;;;;;;4880819;29;20461;-76
2023/04/24 09:39:15;;;;;;;2.15;1.30;;;;;;;;;;4880440;29;20124;-76
2023/04/24 09:41:49;;;;;;;1.20;1.10;;;;;;;;;;4880355;29;20049;-77
2023/04/24 09:44:22;;;;;;;1.73;1.10;;;;;;;;;;4880582;29;20472;-78
2023/04/24 09:47:09;;;;;;;1.27;1.00;;;;;;;;;;4880677;29;20112;-76
2023/04/24 09:49:38;;;;;;;1.05;1.05;;;;;;;;;;4880344;29;20503;-77
2023/04/24 09:52:08;;;;;;;0.90;0.90;;;;;;;;;;4880322;29;20092;-77
2023/04/24 09:54:33;;;;;;;0.95;0.95;;;;;;;;;;4880337;29;20033;-77
2023/04/24 09:57:00;;;;;;;1.17;1.08;;;;;;;;;;4880329;29;20035;-76
2023/04/24 09:59:25;;;;;;;1.10;1.10;;;;;;;;;;4879915;29;20103;-78
2023/04/24 10:01:52;;;;;;;2.10;1.25;;;;;;;;;;4880318;29;20040;-79
2023/04/24 10:04:24;;;;;;;1.40;1.30;;;;;;;;;;4879966;29;20096;-81
2023/04/24 10:06:50;;;;;;;1.30;1.23;;;;;;;;;;4878582;29;20057;-77
2023/04/24 10:09:20;;;;;;;2.00;1.90;;;;;;;;;;4879925;29;20485;-76
2023/04/24 10:11:48;;;;;;;1.90;1.80;;;;;;;;;;4880090;29;20380;-75
2023/04/24 10:14:16;;;;;;;1.92;1.83;;;;;;;;;;4879750;29;20040;-77
2023/04/24 10:16:42;;;;;;;1.80;1.70;;;;;;;;;;4879886;29;20037;-75
2023/04/24 10:19:08;;;;;;;1.83;1.73;;;;;;;;;;4879862;29;20033;-75
2023/04/24 10:21:37;;;;;;;1.75;1.65;;;;;;;;;;4879908;29;20044;-76
2023/04/24 10:24:04;;;;;;;2.05;1.88;;;;;;;;;;4879792;29;20032;-78
2023/04/24 10:26:30;;;;;;;2.10;1.90;;;;;;;;;;4879976;29;20029;-77
2023/04/24 10:28:57;;;;;;;1.60;1.50;;;;;;;;;;4879472;29;20025;-76
2023/04/24 10:31:23;;;;;;;1.83;1.60;;;;;;;;;;4879689;29;20047;-76
2023/04/24 10:33:51;;;;;;;1.45;1.35;;;;;;;;;;4879591;29;20124;-76
2023/04/24 10:36:17;;;;;;;1.60;1.50;;;;;;;;;;4879821;29;20033;-76
2023/04/24 10:38:46;;;;;;;1.50;1.40;;;;;;;;;;4879709;29;20089;-79
2023/04/24 10:41:16;;;;;;;1.33;1.23;;;;;;;;;;4879766;29;20053;-78
2023/04/24 10:43:41;;;;;;;;;;;;;;;;;;4880047;29;20025;-77
2023/04/24 10:46:10;;;;;;;1.20;1.15;;;;;;;;;;4879771;29;19916;-78
2023/04/24 10:48:41;;;;;;;1.13;1.13;;;;;;;;;;4879861;29;20029;-76
2023/04/24 10:51:12;;;;;;;1.52;1.42;;;;;;;;;;4879695;29;20120;-78
2023/04/24 10:53:38;;;;;;;1.23;1.17;;;;;;;;;;4879773;29;20037;-77
2023/04/24 10:56:12;;;;;;;1.23;1.23;;;;;;;;;;4879494;29;20036;-81
2023/04/24 10:58:44;;;;;;;1.48;1.20;;;;;;;;;;4879363;29;20029;-81
2023/04/24 11:01:26;;;;;;;1.00;1.00;;;;;;;;;;4879663;29;20029;-81
2023/04/24 11:04:00;;;;;;;1.85;1.75;;;;;;;;;;4878363;29;20085;-78
2023/04/24 11:06:43;;;;;;;2.08;1.70;;;;;;;;;;4879186;29;20049;-77
2023/04/24 11:09:12;;;;;;;1.25;1.10;;;;;;;;;;4879259;29;20071;-80
2023/04/24 11:11:43;;;;;;;1.33;0.95;;;;;;;;;;4879256;29;20032;-77
2023/04/24 11:14:09;;;;;;;1.08;1.00;;;;;;;;;;4879556;29;20396;-79
2023/04/24 11:16:51;;;;;;;1.75;1.05;;;;;;;;;;4879449;29;20153;-77
2023/04/24 11:19:23;;;;;;;1.20;1.10;;;;;;;;;;4879130;29;20029;-78
2023/04/24 11:21:49;;;;;;;1.10;1.10;;;;;;;;;;4879306;29;20040;-78
2023/04/24 11:24:30;;;;;;;0.98;0.90;;;;;;;;;;4879210;29;20033;-78
2023/04/24 11:27:21;;;;;;;2.08;1.40;;;;;;;;;;4881284;29;20021;-78
2023/04/24 11:29:46;;;;;;;1.27;1.17;;;;;;;;;;4882590;29;20057;-78
2023/04/24 11:32:29;;;;;;;1.50;1.13;;;;;;;;;;4882504;29;20061;-78
2023/04/24 11:35:03;;;;;;;1.40;1.30;;;;;;;;;;4882619;29;20059;-77
2023/04/24 11:37:40;;;;;;;1.35;1.25;;;;;;;;;;4882434;29;20031;-78
2023/04/24 11:40:10;;;;;;;2.05;1.92;;;;;;;;;;4881425;29;20040;-78
2023/04/24 11:42:37;;;;;;;1.50;1.40;;;;;;;;;;4882921;29;20427;-78
2023/04/24 11:45:09;;;;;;;1.60;1.40;;;;;;;;;;4882332;29;20056;-78
2023/04/24 11:47:35;;;;;;;1.60;1.50;;;;;;;;;;4882282;29;20040;-78
2023/04/24 11:50:01;;;;;;;1.50;1.40;;;;;;;;;;4882433;29;20025;-79
2023/04/24 11:52:27;;;;;;;1.20;1.10;;;;;;;;;;4882312;29;20041;-81
2023/04/24 11:54:53;;;;;;;1.58;1.40;;;;;;;;;;4882145;29;20145;-81
2023/04/24 11:57:23;;;;;;;2.28;2.08;;;;;;;;;;4882143;29;20115;-79
2023/04/24 11:59:49;;;;;;;1.50;1.40;;;;;;;;;;4882472;29;20033;-79
2023/04/24 12:02:25;;;;;;;1.85;1.40;;;;;;;;;;4881986;29;20040;-80
2023/04/24 12:04:52;;;;;;;1.60;1.50;;;;;;;;;;4882106;29;20033;-80
2023/04/24 12:07:18;;;;;;;1.30;1.20;;;;;;;;;;4881693;29;20049;-79
2023/04/24 12:09:45;;;;;;;1.20;1.20;;;;;;;;;;4882041;29;20508;-80
2023/04/24 12:12:15;;;;;;;1.23;1.10;;;;;;;;;;4882110;29;20475;-80
2023/04/24 12:14:44;;;;;;;1.10;1.10;;;;;;;;;;4882323;29;20032;-79
2023/04/24 12:17:09;;;;;;;1.30;1.20;;;;;;;;;;4881824;29;20504;-80
2023/04/24 12:19:35;;;;;;;2.00;1.90;;;;;;;;;;4882019;29;20057;-80
2023/04/24 12:22:03;;;;;;;1.08;1.02;;;;;;;;;;4881990;29;20081;-80
2023/04/24 12:24:30;;;;;;;1.15;1.05;;;;;;;;;;4880513;29;20037;-80
2023/04/24 12:26:56;;;;;;;1.52;1.05;;;;;;;;;;4881737;29;20029;-80
2023/04/24 12:29:22;;;;;;;1.40;1.30;;;;;;;;;;4881806;29;20028;-80
2023/04/24 12:31:47;;;;;;;1.25;1.15;;;;;;;;;;4881639;29;20052;-80
2023/04/24 12:34:21;;;;;;;1.17;1.08;;;;;;;;;;4881549;29;20477;-81
2023/04/24 12:36:47;;;;;;;1.02;0.90;;;;;;;;;;4880197;29;20093;-81
2023/04/24 12:39:20;;;;;;;1.27;1.17;;;;;;;;;;4880605;29;20025;-81
2023/04/24 12:41:51;;;;;;;1.13;1.10;;;;;;;;;;4881840;29;20029;-79
2023/04/24 12:44:16;;;;;;;2.05;1.10;;;;;;;;;;4881453;29;20085;-79
2023/04/24 12:46:42;;;;;;;1.42;1.02;;;;;;;;;;4881534;29;20025;-90
2023/04/24 12:49:07;;;;;;;1.30;1.20;;;;;;;;;;4880097;29;20025;-94
2023/04/24 12:51:33;;;;;;;1.50;1.17;;;;;;;;;;4881218;29;20037;-86
2023/04/24 12:53:58;;;;;;;2.35;1.17;;;;;;;;;;4881342;29;20036;-85
2023/04/24 12:56:24;;;;;;;0.88;0.88;;;;;;;;;;4881204;29;20036;-84
2023/04/24 12:58:51;;;;;;;0.98;0.85;;;;;;;;;;4881114;29;20115;-84
2023/04/24 13:01:16;;;;;;;0.80;0.80;;;;;;;;;;4881095;29;20071;-83
2023/04/24 13:03:42;;;;;;;0.80;0.80;;;;;;;;;;4881365;29;20032;-83
2023/04/24 13:06:08;;;;;;;0.90;0.90;;;;;;;;;;4881292;29;20120;-90
2023/04/24 13:08:33;;;;;;;0.70;0.70;;;;;;;;;;4879721;29;20199;-88
2023/04/24 13:10:59;;;;;;;0.70;0.70;;;;;;;;;;4879707;29;20031;-88
2023/04/24 13:13:24;;;;;;;0.70;0.60;;;;;;;;;;4881124;29;20099;-88
2023/04/24 13:15:50;;;;;;;0.70;0.60;;;;;;;;;;4881252;29;20485;-88
2023/04/24 15:17:41;;;;;;;2.13;2.00;;;;;;;;;;4951176;28;20062;-87
2023/04/24 15:20:07;;;;;;;1.63;1.52;;;;;;;;;;4939833;29;20043;-87
2023/04/24 15:22:33;;;;;;;2.80;2.00;;;;;;;;;;4938425;29;20034;-89
2023/04/24 15:24:58;;;;;;;1.08;1.00;;;;;;;;;;4938105;29;20027;-88
2023/04/24 15:27:24;;;;;;;1.00;1.00;;;;;;;;;;4938072;29;20036;-88
2023/04/24 15:29:49;;;;;;;0.93;0.90;;;;;;;;;;4938585;29;20027;-87
2023/04/24 15:32:15;;;;;;;0.90;0.90;;;;;;;;;;4938691;29;20028;-80
2023/04/24 15:34:40;;;;;;;0.82;0.82;;;;;;;;;;4939070;29;20027;-84
2023/04/24 15:37:06;;;;;;;2.78;1.10;;;;;;;;;;4939244;29;20028;-85
2023/04/24 15:39:31;;;;;;;1.20;1.10;;;;;;;;;;4938381;29;20027;-87
2023/04/24 15:41:59;;;;;;;2.75;2.42;;;;;;;;;;4937887;29;20043;-85
2023/04/24 15:44:25;;;;;;;5.78;5.28;;;;;;;;;;4938954;29;20066;-86
2023/04/24 15:46:51;;;;;;;4.38;3.97;;;;;;;;;;4939858;29;20063;-86
2023/04/24 15:49:17;;;;;;;3.70;3.40;;;;;;;;;;4937850;29;20486;-86
2023/04/24 15:51:42;;;;;;;2.45;2.25;;;;;;;;;;4938088;29;20043;-90
2023/04/24 15:54:08;;;;;;;1.80;1.70;;;;;;;;;;4939012;29;20024;-86
2023/04/24 15:56:34;;;;;;;2.35;1.95;;;;;;;;;;4939139;29;20028;-84
2023/04/24 15:59:00;;;;;;;1.50;1.40;;;;;;;;;;4938842;29;20486;-84
2023/04/24 16:01:25;;;;;;;2.22;1.35;;;;;;;;;;4938995;29;20032;-86
2023/04/24 16:03:51;;;;;;;2.40;1.35;;;;;;;;;;4938838;29;20496;-84
2023/04/24 16:06:16;;;;;;;2.30;1.80;;;;;;;;;;4938701;29;20028;-84
2023/04/24 16:08:42;;;;;;;1.90;1.80;;;;;;;;;;4938680;29;20420;-83
2023/04/24 16:11:07;;;;;;;15.40;4.40;;;;;;;;;;4938884;29;20035;-84
2023/04/24 16:13:33;;;;;;;6.90;3.00;;;;;;;;;;4936951;29;20035;-84
2023/04/24 16:15:58;;;;;;;6.72;3.28;;;;;;;;;;4938506;29;20386;-83
2023/04/24 16:18:24;;;;;;;27.33;6.93;;;;;;;;;;4938542;29;20048;-82
2023/04/24 16:20:49;;;;;;;30.70;8.68;;;;;;;;;;4938464;29;20035;-83
2023/04/24 16:23:15;;;;;;;11.00;3.40;;;;;;;;;;4938550;29;20467;-83
2023/04/24 16:25:41;;;;;;;4.63;2.30;;;;;;;;;;4939004;29;20356;-83
2023/04/24 16:28:06;;;;;;;2.97;1.90;;;;;;;;;;4943184;28;20036;-83
2023/04/24 16:30:32;;;;;;;2.10;1.88;;;;;;;;;;4944918;29;20114;-84
2023/04/24 16:32:57;;;;;;;2.60;1.70;;;;;;;;;;4943594;28;20040;-90
2023/04/24 16:35:23;;;;;;;4.20;2.25;;;;;;;;;;4937216;29;20175;-85
2023/04/24 16:37:48;;;;;;;5.32;3.20;;;;;;;;;;4924421;29;20064;-86
2023/04/24 16:40:14;;;;;;;3.05;2.22;;;;;;;;;;4917793;29;20118;-87
2023/04/24 16:42:39;;;;;;;6.75;3.25;;;;;;;;;;4938571;29;20156;-84
2023/04/24 16:45:05;;;;;;;4.00;2.83;;;;;;;;;;4957197;28;20035;-85
2023/04/24 16:47:31;;;;;;;3.28;2.40;;;;;;;;;;4956821;28;20031;-84
2023/04/24 16:49:57;;;;;;;3.35;2.15;;;;;;;;;;4948675;28;20053;-85
2023/04/24 16:52:22;;;;;;;1.92;1.70;;;;;;;;;;4937751;29;20106;-86
2023/04/24 16:54:48;;;;;;;5.90;2.40;;;;;;;;;;4942323;29;20497;-84
2023/04/24 16:57:15;;;;;;;6.88;2.75;;;;;;;;;;4951193;29;20048;-85
2023/04/24 16:59:40;;;;;;;3.42;1.95;;;;;;;;;;4956682;28;20118;-90
2023/04/24 17:02:06;;;;;;;3.17;2.30;;;;;;;;;;4956766;28;20445;-86
2023/04/24 17:04:34;;;;;;;2.00;1.80;;;;;;;;;;4956683;28;20028;-88
2023/04/24 17:07:00;;;;;;;1.88;1.30;;;;;;;;;;4948359;28;20027;-85
2023/04/24 17:09:25;;;;;;;1.70;1.60;;;;;;;;;;4937387;29;20030;-85
2023/04/24 17:11:51;;;;;;;2.17;1.45;;;;;;;;;;4937947;29;20039;-84
2023/04/24 17:14:16;;;;;;;1.45;1.35;;;;;;;;;;4937350;29;20039;-88
2023/04/24 17:16:42;;;;;;;3.55;1.40;;;;;;;;;;4936071;29;20031;-84
2023/04/24 17:19:07;;;;;;;1.95;1.35;;;;;;;;;;4937190;29;20125;-84
2023/04/24 17:21:33;;;;;;;1.63;1.40;;;;;;;;;;4937075;29;20039;-84
2023/04/24 17:23:58;;;;;;;1.38;1.27;;;;;;;;;;4935034;29;20032;-89
2023/04/24 17:26:24;;;;;;;2.15;1.00;;;;;;;;;;4937180;29;20058;-84
2023/04/24 17:28:53;;;;;;;3.25;1.20;;;;;;;;;;4937234;29;20020;-85
2023/04/24 17:31:18;;;;;;;1.65;1.30;;;;;;;;;;4936755;29;20048;-91
2023/04/24 17:33:44;;;;;;;1.80;1.70;;;;;;;;;;4937754;29;20031;-86
2023/04/24 17:36:09;;;;;;;3.10;2.80;;;;;;;;;;4956088;28;20086;-87
2023/04/24 17:38:35;;;;;;;5.53;5.07;;;;;;;;;;4956458;28;20101;-86
2023/04/24 17:41:00;;;;;;;14.55;13.45;;;;;;;;;;4945483;28;20128;-91
2023/04/24 17:43:26;;;;;;;11.00;10.20;;;;;;;;;;4918140;29;20468;-84
2023/04/24 17:45:58;;;;;;;5.97;5.47;;;;;;;;;;4918235;29;20032;-83
2023/04/24 17:48:23;;;;;;;3.08;2.85;;;;;;;;;;4920321;29;20043;-88
2023/04/24 17:50:49;;;;;;;2.08;1.98;;;;;;;;;;4918173;29;20476;-85
2023/04/24 17:53:15;;;;;;;2.38;2.20;;;;;;;;;;4917905;29;20519;-84
2023/04/24 17:55:42;;;;;;;2.53;2.13;;;;;;;;;;4917791;29;20039;-92
2023/04/24 17:58:08;;;;;;;1.90;1.80;;;;;;;;;;4917936;29;20055;-85
2023/04/24 18:00:34;;;;;;;2.35;1.45;;;;;;;;;;4917799;29;20071;-86
2023/04/24 18:03:00;;;;;;;1.58;1.48;;;;;;;;;;4917975;29;20040;-83
2023/04/24 18:05:28;;;;;;;2.45;1.50;;;;;;;;;;4917519;29;20024;-85
2023/04/24 18:07:53;;;;;;;2.15;1.50;;;;;;;;;;4917892;29;20031;-78
2023/04/24 18:10:19;;;;;;;5.25;4.32;;;;;;;;;;4917732;29;20032;-78
2023/04/24 18:12:46;;;;;;;8.25;7.55;;;;;;;;;;4917612;29;20104;-82
2023/04/24 18:15:11;;;;;;;7.78;7.05;;;;;;;;;;4916448;29;20040;-84
2023/04/24 18:17:36;;;;;;;3.30;3.00;;;;;;;;;;4917312;29;20052;-78
2023/04/24 18:20:02;;;;;;;2.22;2.10;;;;;;;;;;4917359;29;20027;-82
2023/04/24 18:22:28;;;;;;;8.48;6.80;;;;;;;;;;4917426;29;20071;-82
2023/04/24 18:24:54;;;;;;;8.98;7.68;;;;;;;;;;4917405;29;20468;-90
2023/04/24 18:27:19;;;;;;;3.38;3.08;;;;;;;;;;4917626;29;20029;-87
2023/04/24 18:29:45;;;;;;;3.05;1.90;;;;;;;;;;4923952;29;20035;-82
2023/04/24 18:32:10;;;;;;;1.58;1.48;;;;;;;;;;4936295;29;20032;-88
2023/04/24 18:34:36;;;;;;;2.85;2.60;;;;;;;;;;4935178;29;20118;-87
2023/04/24 18:37:01;;;;;;;6.28;5.65;;;;;;;;;;4939623;29;20063;-85
2023/04/24 18:39:27;;;;;;;17.23;15.43;;;;;;;;;;4939902;29;20023;-81
2023/04/24 18:41:52;;;;;;;12.52;11.23;;;;;;;;;;4939865;29;20043;-83
2023/04/24 18:44:18;;;;;;;7.28;6.60;;;;;;;;;;4938648;29;20047;-80
2023/04/24 18:46:44;;;;;;;4.20;3.78;;;;;;;;;;4940431;29;20038;-87
2023/04/24 18:49:09;;;;;;;6.65;5.18;;;;;;;;;;4939291;29;20032;-87
2023/04/24 18:51:35;;;;;;;10.52;7.50;;;;;;;;;;4940160;29;20024;-86
2023/04/24 18:54:00;;;;;;;32.25;21.90;;;;;;;;;;4940241;29;20111;-81
2023/04/24 18:56:26;;;;;;;13.38;9.05;;;;;;;;;;4940168;29;20023;-81
2023/04/24 18:58:54;;;;;;;9.63;7.30;;;;;;;;;;4940079;29;20104;-81
2023/04/24 19:01:20;;;;;;;12.95;9.77;;;;;;;;;;4940216;29;20390;-80
2023/04/24 19:03:45;;;;;;;31.27;23.05;;;;;;;;;;4939780;29;20035;-80
2023/04/24 19:06:11;;;;;;;30.63;23.27;;;;;;;;;;4940063;29;20020;-90
2023/04/24 19:08:37;;;;;;;17.55;14.55;;;;;;;;;;4939924;29;20439;-79
2023/04/24 19:11:03;;;;;;;8.27;7.47;;;;;;;;;;4947274;29;20023;-89
2023/04/24 19:13:29;;;;;;;5.47;4.88;;;;;;;;;;4945534;29;20034;-88
2023/04/24 19:15:54;;;;;;;4.72;4.07;;;;;;;;;;4930536;29;20036;-90
2023/04/24 19:18:19;;;;;;;2.90;2.28;;;;;;;;;;4928388;29;20078;-82
2023/04/24 19:20:45;;;;;;;2.03;1.90;;;;;;;;;;4946123;29;20030;-79
2023/04/24 19:23:10;;;;;;;1.98;1.88;;;;;;;;;;4949177;28;20050;-79
2023/04/24 19:25:36;;;;;;;2.10;2.00;;;;;;;;;;4944559;29;20038;-79
2023/04/24 19:28:02;;;;;;;2.03;1.90;;;;;;;;;;4939838;29;20492;-80
2023/04/24 19:30:27;;;;;;;2.30;2.10;;;;;;;;;;4939357;29;20507;-80
2023/04/24 19:32:53;;;;;;;2.28;2.17;;;;;;;;;;4939488;29;20036;-93
2023/04/24 19:35:18;;;;;;;2.20;2.10;;;;;;;;;;4939419;29;20357;-80
2023/04/24 19:37:44;;;;;;;2.03;1.90;;;;;;;;;;4939698;29;20028;-91
2023/04/24 19:40:11;;;;;;;2.47;2.28;;;;;;;;;;4939476;29;20028;-81
2023/04/24 19:42:37;;;;;;;2.55;2.40;;;;;;;;;;4939803;29;20086;-93
2023/04/24 19:45:02;;;;;;;2.75;2.53;;;;;;;;;;4939190;29;20419;-89
2023/04/24 19:47:28;;;;;;;2.00;1.90;;;;;;;;;;4938843;28;20053;-81
2023/04/24 19:49:53;;;;;;;2.00;1.90;;;;;;;;;;4939807;29;20035;-91
2023/04/24 19:52:20;;;;;;;2.42;2.15;;;;;;;;;;4939530;29;20030;-94
2023/04/24 19:54:45;;;;;;;3.58;3.28;;;;;;;;;;4939503;29;20032;-93
2023/04/24 19:57:11;;;;;;;3.30;3.00;;;;;;;;;;4941483;29;20046;-92
2023/04/24 19:59:36;;;;;;;3.20;2.60;;;;;;;;;;4950105;29;20023;-92
2023/04/24 20:02:01;;;;;;;3.30;2.42;;;;;;;;;;4958613;28;20035;-94
2023/04/24 20:04:27;;;;;;;1.85;1.73;;;;;;;;;;4958063;28;20411;-81
2023/04/24 20:06:53;;;;;;;2.00;1.90;;;;;;;;;;4958243;28;20034;-93
2023/04/24 20:09:18;;;;;;;2.40;2.20;;;;;;;;;;4958366;28;20054;-91
2023/04/24 20:11:45;;;;;;;3.17;2.97;;;;;;;;;;4958596;28;20035;-90
2023/04/24 20:14:11;;;;;;;3.67;3.38;;;;;;;;;;4961255;28;20027;-93
2023/04/24 20:16:37;;;;;;;4.78;4.15;;;;;;;;;;4959294;28;20059;-86
2023/04/24 20:19:02;;;;;;;3.92;3.63;;;;;;;;;;4949759;28;20048;-80
2023/04/24 20:21:28;;;;;;;3.83;3.42;;;;;;;;;;4941848;29;20058;-90
2023/04/24 20:23:53;;;;;;;3.70;3.40;;;;;;;;;;4943325;29;20086;-89
2023/04/24 20:26:19;;;;;;;3.38;3.08;;;;;;;;;;4958209;28;20112;-88
2023/04/24 20:28:44;;;;;;;3.40;3.17;;;;;;;;;;4958123;28;20031;-83
2023/04/24 20:31:10;;;;;;;3.45;3.15;;;;;;;;;;4956990;29;20489;-86
2023/04/24 20:33:40;;;;;;;2.65;2.30;;;;;;;;;;4956404;29;20431;-87
2023/04/24 20:36:06;;;;;;;3.00;2.40;;;;;;;;;;4957925;28;20023;-89
2023/04/24 20:38:32;;;;;;;4.63;3.25;;;;;;;;;;4958171;29;20055;-91
2023/04/24 20:40:58;;;;;;;4.35;3.95;;;;;;;;;;4958006;28;20106;-89
2023/04/24 20:43:25;;;;;;;5.15;4.63;;;;;;;;;;4957870;28;20046;-90
2023/04/24 20:45:51;;;;;;;4.57;3.60;;;;;;;;;;4956497;28;20447;-81
2023/04/24 20:48:16;;;;;;;3.30;3.03;;;;;;;;;;4938171;29;20051;-81
2023/04/24 20:50:42;;;;;;;2.85;2.65;;;;;;;;;;4955020;29;20379;-81
2023/04/24 20:53:08;;;;;;;2.72;2.53;;;;;;;;;;4957636;28;20118;-86
2023/04/24 20:55:33;;;;;;;3.25;2.95;;;;;;;;;;4957688;28;20031;-88
2023/04/24 20:57:59;;;;;;;3.65;3.35;;;;;;;;;;4956889;28;20499;-84
2023/04/24 21:00:25;;;;;;;3.40;2.67;;;;;;;;;;4956692;28;20039;-87
2023/04/24 21:02:51;;;;;;;3.13;2.70;;;;;;;;;;4957449;28;20497;-86
2023/04/24 21:05:16;;;;;;;3.08;2.72;;;;;;;;;;4957439;28;20027;-91
2023/04/24 21:07:42;;;;;;;2.78;2.58;;;;;;;;;;4957412;28;20035;-90
2023/04/24 21:10:08;;;;;;;4.57;2.30;;;;;;;;;;4957042;28;20033;-86
2023/04/24 21:12:33;;;;;;;2.15;2.00;;;;;;;;;;4957293;28;20438;-88
2023/04/24 21:14:59;;;;;;;2.33;1.63;;;;;;;;;;4957142;28;20039;-92
2023/04/24 21:17:25;;;;;;;1.95;1.75;;;;;;;;;;4956748;28;20030;-89
2023/04/24 21:19:51;;;;;;;1.92;1.70;;;;;;;;;;4956686;29;20459;-81
2023/04/24 21:22:16;;;;;;;1.90;1.80;;;;;;;;;;4955590;29;20038;-91
2023/04/24 21:24:42;;;;;;;1.80;1.63;;;;;;;;;;4956886;28;20073;-92
2023/04/24 21:27:08;;;;;;;2.17;2.00;;;;;;;;;;4956766;28;20027;-92
2023/04/24 21:29:34;;;;;;;1.95;1.85;;;;;;;;;;4955582;29;20028;-82
2023/04/24 21:32:00;;;;;;;3.90;3.60;;;;;;;;;;4956840;28;20042;-82
2023/04/24 21:34:26;;;;;;;4.47;3.92;;;;;;;;;;4956555;28;20394;-88
2023/04/24 21:36:51;;;;;;;4.50;3.35;;;;;;;;;;4956895;28;20028;-92
2023/04/24 21:39:17;;;;;;;2.97;2.70;;;;;;;;;;4956686;28;20034;-82
